createdAt,value
2023-02-13T00:00:48.844Z,7.75
2023-02-13T00:03:17.232Z,8.75
2023-02-13T00:05:45.908Z,7.90
2023-02-13T00:08:13.911Z,7.45
2023-02-13T00:10:42.303Z,7.82
2023-02-13T00:13:10.336Z,7.70
2023-02-13T00:15:39.908Z,8.48
2023-02-13T00:18:08.203Z,7.37
2023-02-13T00:20:36.433Z,6.78
2023-02-13T00:23:04.447Z,6.80
2023-02-13T00:25:32.741Z,7.62
2023-02-13T00:28:00.827Z,7.32
2023-02-13T00:30:29.024Z,6.85
2023-02-13T00:32:58.818Z,7.30
2023-02-13T00:35:26.994Z,7.43
2023-02-13T00:37:55.009Z,6.62
2023-02-13T00:40:26.296Z,8.32
2023-02-13T00:42:54.248Z,7.55
2023-02-13T00:45:22.285Z,7.87
2023-02-13T00:47:50.955Z,8.40
2023-02-13T00:50:22.561Z,7.72
2023-02-13T00:52:51.044Z,6.72
2023-02-13T00:55:19.927Z,6.60
2023-02-13T00:57:47.960Z,7.97
2023-02-13T01:00:17.858Z,6.90
2023-02-13T01:02:45.972Z,7.93
2023-02-13T01:05:14.278Z,6.45
2023-02-13T01:07:44.171Z,7.75
2023-02-13T01:10:14.336Z,7.03
2023-02-13T01:12:43.261Z,7.70
2023-02-13T01:15:12.020Z,7.85
2023-02-13T01:17:41.302Z,7.55
2023-02-13T01:20:11.012Z,7.55
2023-02-13T01:22:39.548Z,8.30
2023-02-13T01:25:10.161Z,7.03
2023-02-13T01:27:39.183Z,6.40
2023-02-13T01:30:11.744Z,7.12
2023-02-13T01:32:40.482Z,5.80
2023-02-13T01:35:09.796Z,5.62
2023-02-13T01:37:40.268Z,6.05
2023-02-13T01:40:14.035Z,5.97
2023-02-13T01:42:42.334Z,5.53
2023-02-13T01:45:24.619Z,6.07
2023-02-13T01:47:56.430Z,6.10
2023-02-13T01:50:31.966Z,6.07
2023-02-13T01:53:07.786Z,5.85
2023-02-13T01:55:43.052Z,6.35
2023-02-13T01:58:15.973Z,5.87
2023-02-13T02:00:49.763Z,5.97
2023-02-13T02:03:22.402Z,5.28
2023-02-13T02:05:52.474Z,4.85
2023-02-13T02:08:21.303Z,5.07
2023-02-13T02:10:56.498Z,5.12
2023-02-13T02:13:27.421Z,5.15
2023-02-13T02:15:55.509Z,5.10
2023-02-13T02:18:25.196Z,5.78
2023-02-13T02:21:23.437Z,5.22
2023-02-13T02:24:14.569Z,5.22
2023-02-13T02:27:18.135Z,4.93
2023-02-13T02:30:36.728Z,4.70
2023-02-13T02:33:17.991Z,5.43
2023-02-13T02:35:54.880Z,4.70
2023-02-13T02:38:37.298Z,4.47
2023-02-13T02:41:10.541Z,6.15
2023-02-13T02:43:52.421Z,4.70
2023-02-13T02:46:29.549Z,6.18
2023-02-13T02:49:24.820Z,5.43
2023-02-13T02:52:04.987Z,5.20
2023-02-13T02:54:57.685Z,5.65
2023-02-13T02:57:51.665Z,5.87
2023-02-13T03:00:41.525Z,5.68
2023-02-13T03:03:34.049Z,5.55
2023-02-13T03:06:14.133Z,6.25
2023-02-13T03:09:04.410Z,6.05
2023-02-13T03:11:50.059Z,5.75
2023-02-13T03:14:21.900Z,5.25
2023-02-13T03:17:08.375Z,6.25
2023-02-13T03:20:09.349Z,5.50
2023-02-13T03:22:46.478Z,5.78
2023-02-13T03:25:34.328Z,5.47
2023-02-13T03:28:30.028Z,5.85
2023-02-13T03:31:04.290Z,7.22
2023-02-13T03:33:47.169Z,6.45
2023-02-13T03:36:41.719Z,6.28
2023-02-13T03:39:19.038Z,5.22
2023-02-13T03:41:53.308Z,5.62
2023-02-13T03:44:28.803Z,6.10
2023-02-13T03:47:00.688Z,5.45
2023-02-13T03:49:49.749Z,5.57
2023-02-13T03:52:23.448Z,5.53
2023-02-13T03:55:14.462Z,5.43
2023-02-13T03:58:03.214Z,5.32
2023-02-13T04:00:39.483Z,5.78
2023-02-13T04:03:21.373Z,5.93
2023-02-13T04:05:55.202Z,6.07
2023-02-13T04:08:23.577Z,6.35
2023-02-13T04:10:58.309Z,5.10
2023-02-13T04:13:33.496Z,5.75
2023-02-13T04:16:07.721Z,6.10
2023-02-13T04:18:36.609Z,6.40
2023-02-13T04:21:06.151Z,5.25
2023-02-13T04:23:36.805Z,6.07
2023-02-13T04:26:09.858Z,5.55
2023-02-13T04:28:38.020Z,5.68
2023-02-13T04:31:06.731Z,5.93
2023-02-13T04:33:34.835Z,6.65
2023-02-13T04:36:02.943Z,5.65
2023-02-13T04:38:32.357Z,5.28
2023-02-13T04:41:00.807Z,5.28
2023-02-13T04:43:30.576Z,6.18
2023-02-13T04:45:59.843Z,5.03
2023-02-13T04:48:27.985Z,5.03
2023-02-13T04:50:56.135Z,5.60
2023-02-13T04:53:24.788Z,5.18
2023-02-13T04:55:53.880Z,6.57
2023-02-13T04:58:27.632Z,5.87
2023-02-13T05:00:57.814Z,5.57
2023-02-13T05:03:26.275Z,4.85
2023-02-13T05:05:54.258Z,5.55
2023-02-13T05:08:23.188Z,5.57
2023-02-13T05:10:51.437Z,6.15
2023-02-13T05:13:21.699Z,5.28
2023-02-13T05:15:52.578Z,5.37
2023-02-13T05:18:22.050Z,4.82
2023-02-13T05:21:10.542Z,4.43
2023-02-13T05:23:37.781Z,4.78
2023-02-13T05:26:06.280Z,5.18
2023-02-13T05:28:52.000Z,4.18
2023-02-13T05:31:20.434Z,5.00
2023-02-13T05:33:49.876Z,5.65
2023-02-13T05:36:17.939Z,4.90
2023-02-13T05:38:46.246Z,5.47
2023-02-13T05:41:14.511Z,4.75
2023-02-13T05:43:42.505Z,5.75
2023-02-13T05:46:11.776Z,5.12
2023-02-13T05:48:39.916Z,4.97
2023-02-13T05:51:09.516Z,4.82
2023-02-13T05:53:38.081Z,4.95
2023-02-13T05:56:06.989Z,5.05
2023-02-13T05:58:35.689Z,4.45
2023-02-13T06:01:04.844Z,5.18
2023-02-13T06:03:33.710Z,5.53
2023-02-13T06:06:02.041Z,4.62
2023-02-13T06:08:31.538Z,4.55
2023-02-13T06:11:00.077Z,5.57
2023-02-13T06:13:28.197Z,6.10
2023-02-13T06:15:56.317Z,6.28
2023-02-13T06:18:25.007Z,5.57
2023-02-13T06:20:53.042Z,4.82
2023-02-13T06:23:21.152Z,5.03
2023-02-13T06:25:50.869Z,5.25
2023-02-13T06:28:19.085Z,5.57
2023-02-13T06:30:47.176Z,5.72
2023-02-13T06:33:15.501Z,4.35
2023-02-13T06:35:43.488Z,5.10
2023-02-13T06:38:11.650Z,4.57
2023-02-13T06:40:40.009Z,4.72
2023-02-13T06:43:09.576Z,5.07
2023-02-13T06:45:38.612Z,5.28
2023-02-13T06:48:07.119Z,4.85
2023-02-13T06:50:35.623Z,5.20
2023-02-13T06:53:03.732Z,5.50
2023-02-13T06:55:32.118Z,4.10
2023-02-13T06:58:00.256Z,5.30
2023-02-13T07:00:30.014Z,4.60
2023-02-13T07:03:04.044Z,4.90
2023-02-13T07:05:32.363Z,4.45
2023-02-13T07:08:00.836Z,5.40
2023-02-13T07:10:28.940Z,5.28
2023-02-13T07:13:05.367Z,4.28
2023-02-13T07:15:36.545Z,4.90
2023-02-13T07:18:05.753Z,4.70
2023-02-13T07:20:34.923Z,4.37
2023-02-13T07:23:04.789Z,5.47
2023-02-13T07:25:35.781Z,5.30
2023-02-13T07:28:05.411Z,4.97
2023-02-13T07:30:35.583Z,4.72
2023-02-13T07:33:05.273Z,5.40
2023-02-13T07:35:35.947Z,4.82
2023-02-13T07:38:04.326Z,4.70
2023-02-13T07:40:32.377Z,4.50
2023-02-13T07:43:01.994Z,5.47
2023-02-13T07:45:30.693Z,5.32
2023-02-13T07:48:00.773Z,5.53
2023-02-13T07:50:29.522Z,5.25
2023-02-13T07:52:59.130Z,5.62
2023-02-13T07:55:27.665Z,5.85
2023-02-13T07:57:56.144Z,5.15
2023-02-13T08:00:24.623Z,5.07
2023-02-13T08:02:52.987Z,5.72
2023-02-13T08:05:22.527Z,5.25
2023-02-13T08:07:51.132Z,6.12
2023-02-13T08:10:37.643Z,7.15
2023-02-13T08:13:06.412Z,5.75
2023-02-13T08:15:34.708Z,5.75
2023-02-13T08:18:02.889Z,5.57
2023-02-13T08:20:32.645Z,5.53
2023-02-13T08:23:04.689Z,4.75
2023-02-13T08:25:32.669Z,4.10
2023-02-13T08:28:01.744Z,4.90
2023-02-13T08:30:29.950Z,5.05
2023-02-13T08:32:57.984Z,4.78
2023-02-13T08:35:29.904Z,4.75
2023-02-13T08:38:02.918Z,3.62
2023-02-13T08:40:31.254Z,4.28
2023-02-13T08:43:01.371Z,3.83
2023-02-13T08:45:30.043Z,3.15
2023-02-13T08:47:58.834Z,3.12
2023-02-13T08:50:28.953Z,3.45
2023-02-13T08:52:57.218Z,3.35
2023-02-13T08:55:27.404Z,3.47
2023-02-13T08:57:55.451Z,2.90
2023-02-13T09:00:23.685Z,3.05
2023-02-13T09:02:52.054Z,3.10
2023-02-13T09:05:20.265Z,2.72
2023-02-13T09:07:48.419Z,3.00
2023-02-13T09:10:17.164Z,3.08
2023-02-13T09:12:53.277Z,3.25
2023-02-13T09:15:21.694Z,3.03
2023-02-13T09:17:50.034Z,2.97
2023-02-13T09:20:18.357Z,3.10
2023-02-13T09:22:46.660Z,3.17
2023-02-13T09:25:14.856Z,2.55
2023-02-13T09:27:47.216Z,3.15
2023-02-13T09:30:23.179Z,3.08
2023-02-13T09:32:51.572Z,2.65
2023-02-13T09:35:20.790Z,2.65
2023-02-13T09:37:48.857Z,2.33
2023-02-13T09:40:23.908Z,2.17
2023-02-13T09:42:54.321Z,2.33
2023-02-13T09:45:23.396Z,1.90
2023-02-13T09:47:51.974Z,2.10
2023-02-13T09:50:23.443Z,1.52
2023-02-13T09:52:53.759Z,1.50
2023-02-13T09:55:27.021Z,1.60
2023-02-13T09:58:04.238Z,1.40
2023-02-13T10:00:39.782Z,1.40
2023-02-13T10:03:28.405Z,1.70
2023-02-13T10:06:05.827Z,1.65
2023-02-13T10:08:56.025Z,1.35
2023-02-13T10:11:40.107Z,1.50
2023-02-13T10:14:17.587Z,1.45
2023-02-13T10:16:50.320Z,1.42
2023-02-13T10:19:33.319Z,1.30
2023-02-13T10:22:06.278Z,1.60
2023-02-13T10:24:38.798Z,1.60
2023-02-13T10:27:19.246Z,1.85
2023-02-13T10:30:09.638Z,1.77
2023-02-13T10:32:47.072Z,2.00
2023-02-13T10:35:23.459Z,2.05
2023-02-13T10:37:55.482Z,2.10
2023-02-13T10:40:31.236Z,2.15
2023-02-13T10:43:08.968Z,1.67
2023-02-13T10:45:56.714Z,1.73
2023-02-13T10:48:38.873Z,3.03
2023-02-13T10:51:13.318Z,1.90
2023-02-13T10:53:54.733Z,1.85
2023-02-13T10:56:31.413Z,1.83
2023-02-13T10:59:20.154Z,1.55
2023-02-13T11:01:57.443Z,1.80
2023-02-13T11:04:25.660Z,2.05
2023-02-13T11:06:58.635Z,1.80
2023-02-13T11:09:27.621Z,1.83
2023-02-13T11:11:56.430Z,1.98
2023-02-13T11:14:25.839Z,2.20
2023-02-13T11:17:00.785Z,1.87
2023-02-13T11:19:34.369Z,1.85
2023-02-13T11:22:05.837Z,1.80
2023-02-13T11:24:34.939Z,1.58
2023-02-13T11:27:09.049Z,1.35
2023-02-13T11:29:39.248Z,1.33
2023-02-13T11:32:25.009Z,1.60
2023-02-13T11:34:54.817Z,1.42
2023-02-13T11:37:26.406Z,1.58
2023-02-13T11:39:56.621Z,1.40
2023-02-13T11:42:31.589Z,1.58
2023-02-13T11:45:03.012Z,1.60
2023-02-13T11:47:37.182Z,1.48
2023-02-13T11:50:19.996Z,1.50
2023-02-13T11:52:56.074Z,1.40
2023-02-13T11:55:42.649Z,1.35
2023-02-13T11:58:25.521Z,1.73
2023-02-13T12:01:10.982Z,2.08
2023-02-13T12:03:42.956Z,1.52
2023-02-13T12:06:15.045Z,1.55
2023-02-13T12:08:46.896Z,2.20
2023-02-13T12:11:23.382Z,1.90
2023-02-13T12:13:53.004Z,1.40
2023-02-13T12:16:31.434Z,1.40
2023-02-13T12:19:04.699Z,1.62
2023-02-13T12:22:00.838Z,1.60
2023-02-13T12:24:43.320Z,1.58
2023-02-13T12:27:19.989Z,1.37
2023-02-13T12:30:00.642Z,1.62
2023-02-13T12:32:40.117Z,1.35
2023-02-13T12:35:37.347Z,1.60
2023-02-13T12:38:13.670Z,1.30
2023-02-13T12:41:13.598Z,1.80
2023-02-13T12:44:19.000Z,1.35
2023-02-13T12:46:55.964Z,1.12
2023-02-13T12:49:40.513Z,1.17
2023-02-13T12:52:27.145Z,1.20
2023-02-13T12:55:10.898Z,1.10
2023-02-13T12:57:51.868Z,1.02
2023-02-13T13:00:30.783Z,1.10
2023-02-13T13:03:12.773Z,1.67
2023-02-13T13:06:08.949Z,1.62
2023-02-13T13:09:12.837Z,1.33
2023-02-13T13:11:58.691Z,1.23
2023-02-13T13:14:36.855Z,1.42
2023-02-13T13:17:20.352Z,1.35
2023-02-13T13:19:57.873Z,1.50
2023-02-13T13:22:33.347Z,1.58
2023-02-13T13:25:15.533Z,1.87
2023-02-13T13:27:46.988Z,1.87
2023-02-13T13:30:20.309Z,1.85
2023-02-13T13:32:52.371Z,1.87
2023-02-13T13:35:22.293Z,1.87
2023-02-13T13:38:02.572Z,2.12
2023-02-13T13:40:43.915Z,2.15
2023-02-13T13:43:21.334Z,1.92
2023-02-13T13:46:01.785Z,1.80
2023-02-13T13:48:46.615Z,2.40
2023-02-13T13:51:18.887Z,2.17
2023-02-13T13:54:36.656Z,2.10
2023-02-13T13:57:08.212Z,2.37
2023-02-13T14:00:14.530Z,2.50
2023-02-13T14:02:48.945Z,2.33
2023-02-13T14:05:27.949Z,2.65
2023-02-13T14:07:58.193Z,2.53
2023-02-13T14:11:09.462Z,2.50
2023-02-13T14:13:41.050Z,2.58
2023-02-13T14:16:12.612Z,2.90
2023-02-13T14:18:47.879Z,2.55
2023-02-13T14:21:24.260Z,2.83
2023-02-13T14:23:53.742Z,3.20
2023-02-13T14:26:40.562Z,2.95
2023-02-13T14:29:30.256Z,3.10
2023-02-13T14:32:08.966Z,2.58
2023-02-13T14:34:40.353Z,2.37
2023-02-13T14:37:24.233Z,2.50
2023-02-13T14:40:26.614Z,2.90
2023-02-13T14:42:57.771Z,2.37
2023-02-13T14:45:32.385Z,2.95
2023-02-13T14:48:07.736Z,2.50
2023-02-13T14:50:46.712Z,3.15
2023-02-13T14:53:24.392Z,3.33
2023-02-13T14:55:59.045Z,2.83
2023-02-13T14:58:30.904Z,2.50
2023-02-13T15:01:06.235Z,2.95
2023-02-13T15:03:43.655Z,2.85
2023-02-13T15:06:17.642Z,3.12
2023-02-13T15:08:49.843Z,3.12
2023-02-13T15:11:37.615Z,2.50
2023-02-13T15:14:26.672Z,2.90
2023-02-13T15:17:02.640Z,2.55
2023-02-13T15:19:31.110Z,1.83
2023-02-13T15:22:01.559Z,2.90
2023-02-13T15:24:37.688Z,2.65
2023-02-13T15:27:08.336Z,2.53
2023-02-13T15:29:49.294Z,2.65
2023-02-13T15:32:28.870Z,2.58
2023-02-13T15:34:56.982Z,2.30
2023-02-13T15:37:28.585Z,2.50
2023-02-13T15:39:56.703Z,2.28
2023-02-13T15:42:24.909Z,2.12
2023-02-13T15:44:57.882Z,2.30
2023-02-13T15:47:31.525Z,2.30
2023-02-13T15:50:00.375Z,1.67
2023-02-13T15:52:32.753Z,2.00
2023-02-13T15:55:01.372Z,1.67
2023-02-13T15:57:30.641Z,2.50
2023-02-13T16:00:04.730Z,2.40
2023-02-13T16:02:47.754Z,2.37
2023-02-13T16:05:37.531Z,2.35
2023-02-13T16:08:35.472Z,2.50
2023-02-13T16:11:21.869Z,2.62
2023-02-13T16:14:00.681Z,2.60
2023-02-13T16:16:31.604Z,2.80
2023-02-13T16:19:01.058Z,2.50
2023-02-13T16:21:31.351Z,2.15
2023-02-13T16:24:02.080Z,2.45
2023-02-13T16:26:31.505Z,2.47
2023-02-13T16:28:59.549Z,2.33
2023-02-13T16:31:27.674Z,2.50
2023-02-13T16:33:56.128Z,2.33
2023-02-13T16:36:30.777Z,2.15
2023-02-13T16:38:59.043Z,1.70
2023-02-13T16:41:32.422Z,2.60
2023-02-13T16:44:01.814Z,2.17
2023-02-13T16:46:35.436Z,1.73
2023-02-13T16:49:17.098Z,2.65
2023-02-13T16:51:50.248Z,2.67
2023-02-13T16:54:26.531Z,4.43
2023-02-13T16:56:57.402Z,2.95
2023-02-13T16:59:30.381Z,2.30
2023-02-13T17:02:17.594Z,2.40
2023-02-13T17:04:50.790Z,2.42
2023-02-13T17:07:23.385Z,2.62
2023-02-13T17:09:57.749Z,2.05
2023-02-13T17:12:26.711Z,2.37
2023-02-13T17:14:57.358Z,2.15
2023-02-13T17:17:25.545Z,2.97
2023-02-13T17:19:53.496Z,3.08
2023-02-13T17:22:34.218Z,4.43
2023-02-13T17:25:04.715Z,3.60
2023-02-13T17:27:32.979Z,3.60
2023-02-13T17:30:01.241Z,3.53
2023-02-13T17:32:29.974Z,2.90
2023-02-13T17:34:58.239Z,2.62
2023-02-13T17:37:30.038Z,2.40
2023-02-13T17:39:58.467Z,2.45
2023-02-13T17:42:29.731Z,3.60
2023-02-13T17:44:59.352Z,4.25
2023-02-13T17:47:30.295Z,2.80
2023-02-13T17:50:08.552Z,2.67
2023-02-13T17:52:40.633Z,1.48
2023-02-13T17:55:17.360Z,1.87
2023-02-13T17:57:45.788Z,2.30
2023-02-13T18:00:15.169Z,2.80
2023-02-13T18:02:43.607Z,2.33
2023-02-13T18:05:12.190Z,2.65
2023-02-13T18:07:43.195Z,2.53
2023-02-13T18:10:15.909Z,2.62
2023-02-13T18:12:44.895Z,2.40
2023-02-13T18:15:14.211Z,3.03
2023-02-13T18:17:42.601Z,3.92
2023-02-13T18:20:14.143Z,3.17
2023-02-13T18:22:44.612Z,3.72
2023-02-13T18:25:13.261Z,4.65
2023-02-13T18:27:41.569Z,3.08
2023-02-13T18:30:11.234Z,3.15
2023-02-13T18:32:39.441Z,3.40
2023-02-13T18:35:08.957Z,2.47
2023-02-13T18:37:39.281Z,2.78
2023-02-13T18:40:10.452Z,4.00
2023-02-13T18:42:39.091Z,3.15
2023-02-13T18:45:11.648Z,2.62
2023-02-13T18:47:42.565Z,2.67
2023-02-13T18:50:11.244Z,2.80
2023-02-13T18:52:39.714Z,3.15
2023-02-13T18:55:09.810Z,2.78
2023-02-13T18:57:37.842Z,2.87
2023-02-13T19:00:07.339Z,2.37
2023-02-13T19:02:35.577Z,2.28
2023-02-13T19:05:03.629Z,2.40
2023-02-13T19:07:32.160Z,2.37
2023-02-13T19:10:00.264Z,2.80
2023-02-13T19:12:29.600Z,2.20
2023-02-13T19:14:57.994Z,2.47
2023-02-13T19:17:26.112Z,3.15
2023-02-13T19:19:55.674Z,3.55
2023-02-13T19:22:24.100Z,3.12
2023-02-13T19:24:52.203Z,3.45
2023-02-13T19:27:20.271Z,3.55
2023-02-13T19:29:49.918Z,2.75
2023-02-13T19:32:17.965Z,2.62
2023-02-13T19:34:46.973Z,2.50
2023-02-13T19:37:15.268Z,2.40
2023-02-13T19:39:43.426Z,2.12
2023-02-13T19:42:11.525Z,2.60
2023-02-13T19:44:39.895Z,3.00
2023-02-13T19:47:09.485Z,2.92
2023-02-13T19:49:37.566Z,3.65
2023-02-13T19:52:06.035Z,3.40
2023-02-13T19:54:34.447Z,3.20
2023-02-13T19:57:05.592Z,3.40
2023-02-13T19:59:33.966Z,2.92
2023-02-13T20:02:02.309Z,3.05
2023-02-13T20:04:36.673Z,3.58
2023-02-13T20:07:05.774Z,3.12
2023-02-13T20:09:35.127Z,2.53
2023-02-13T20:12:03.178Z,2.70
2023-02-13T20:14:31.336Z,3.08
2023-02-13T20:16:59.876Z,2.85
2023-02-13T20:19:28.740Z,3.40
2023-02-13T20:21:58.233Z,2.97
2023-02-13T20:24:26.538Z,3.65
2023-02-13T20:26:56.511Z,4.05
2023-02-13T20:29:24.591Z,3.37
2023-02-13T20:31:53.395Z,3.20
2023-02-13T20:34:21.721Z,3.20
2023-02-13T20:36:49.948Z,3.42
2023-02-13T20:39:19.820Z,2.85
2023-02-13T20:41:50.389Z,3.03
2023-02-13T20:44:21.064Z,3.00
2023-02-13T20:46:50.985Z,4.07
2023-02-13T20:49:22.056Z,3.70
2023-02-13T20:51:50.553Z,3.30
2023-02-13T20:54:20.232Z,3.53
2023-02-13T20:56:48.424Z,3.45
2023-02-13T20:59:16.546Z,3.28
2023-02-13T21:01:45.663Z,3.53
2023-02-13T21:04:19.039Z,4.07
2023-02-13T21:06:48.047Z,3.33
2023-02-13T21:09:16.983Z,3.85
2023-02-13T21:11:46.489Z,2.90
2023-02-13T21:14:15.057Z,2.90
2023-02-13T21:16:43.976Z,3.78
2023-02-13T21:19:15.109Z,3.12
2023-02-13T21:21:44.405Z,3.20
2023-02-13T21:24:14.746Z,2.95
2023-02-13T21:26:44.152Z,4.62
2023-02-13T21:29:13.768Z,3.37
2023-02-13T21:31:47.361Z,3.92
2023-02-13T21:34:16.749Z,3.95
2023-02-13T21:36:45.580Z,4.07
2023-02-13T21:39:13.832Z,5.25
2023-02-13T21:41:43.690Z,4.07
2023-02-13T21:44:14.293Z,4.43
2023-02-13T21:46:44.056Z,3.90
2023-02-13T21:49:13.742Z,4.68
2023-02-13T21:51:44.197Z,3.97
2023-02-13T21:54:13.873Z,4.20
2023-02-13T21:56:43.402Z,3.45
2023-02-13T21:59:15.542Z,3.50
2023-02-13T22:01:46.880Z,3.20
2023-02-13T22:04:15.312Z,4.18
2023-02-13T22:06:43.931Z,3.90
2023-02-13T22:09:14.553Z,3.75
2023-02-13T22:11:43.570Z,4.85
2023-02-13T22:14:16.253Z,4.05
2023-02-13T22:16:47.151Z,3.72
2023-02-13T22:19:16.649Z,3.62
2023-02-13T22:21:46.250Z,4.37
2023-02-13T22:24:14.345Z,3.78
2023-02-13T22:26:45.548Z,3.87
2023-02-13T22:29:17.774Z,4.22
2023-02-13T22:31:46.108Z,4.43
2023-02-13T22:34:16.298Z,4.05
2023-02-13T22:36:44.366Z,4.65
2023-02-13T22:39:12.888Z,4.15
2023-02-13T22:41:42.374Z,4.20
2023-02-13T22:44:10.355Z,3.70
2023-02-13T22:46:39.725Z,4.68
2023-02-13T22:49:08.114Z,4.40
2023-02-13T22:51:37.802Z,3.67
2023-02-13T22:54:06.700Z,4.35
2023-02-13T22:56:35.414Z,5.18
2023-02-13T22:59:03.689Z,4.68
2023-02-13T23:01:31.962Z,4.43
2023-02-13T23:04:01.707Z,4.60
2023-02-13T23:06:30.052Z,3.67
2023-02-13T23:08:58.589Z,5.03
2023-02-13T23:11:46.879Z,4.68
2023-02-13T23:14:15.555Z,4.28
2023-02-13T23:17:02.214Z,5.25
2023-02-13T23:19:31.780Z,8.05
2023-02-13T23:22:00.550Z,10.52
2023-02-13T23:24:28.734Z,10.18
2023-02-13T23:26:56.718Z,10.43
2023-02-13T23:29:27.355Z,8.13
2023-02-13T23:31:55.918Z,7.82
2023-02-13T23:34:24.337Z,6.45
2023-02-13T23:36:53.804Z,5.20
2023-02-13T23:39:24.260Z,5.30
2023-02-13T23:41:52.565Z,5.32
2023-02-13T23:44:21.160Z,5.40
2023-02-13T23:46:49.263Z,4.70
2023-02-13T23:49:17.927Z,4.95
2023-02-13T23:51:45.874Z,5.57
2023-02-13T23:54:17.062Z,5.40
2023-02-13T23:56:45.509Z,5.03
2023-02-13T23:59:15.680Z,5.20
